Time;durP1;ratioP1;P1;durP2;ratioP2;P2;SDS_P1;SDS_P2;PMS_P1;PMS_P2;Temp;Humidity;BMP_temperature;BMP_pressure;BME280_temperature;BME280_humidity;BME280_pressure;Samples;Min_cycle;Max_cycle;Signal;HPM_P1;HPM_P2
2023/04/09 00:01:09;;;;;;;48.40;41.87;;;;;;;-150.27;100.00;61272.81;5074500;29;20120;-72
2023/04/09 00:03:41;;;;;;;50.20;43.35;;;;;;;-150.27;100.00;61272.81;5074292;29;20040;-70
2023/04/09 00:06:12;;;;;;;46.67;41.80;;;;;;;-150.27;100.00;61272.81;5069201;29;20029;-75
2023/04/09 00:08:43;;;;;;;47.90;42.90;;;;;;;-150.27;100.00;61272.81;5064682;29;20165;-76
2023/04/09 00:11:14;;;;;;;49.30;43.93;;;;;;;-150.27;100.00;61272.81;5070041;29;20038;-76
2023/04/09 00:13:46;;;;;;;46.80;41.63;;;;;;;-150.27;100.00;61272.81;5073534;29;20577;-76
2023/04/09 00:16:17;;;;;;;48.47;41.63;;;;;;;-150.27;100.00;61272.81;5074126;29;20059;-72
2023/04/09 00:18:48;;;;;;;44.83;39.93;;;;;;;-150.27;100.00;61272.81;5073545;29;20068;-75
2023/04/09 00:21:20;;;;;;;44.63;38.80;;;;;;;-150.27;100.00;61272.81;5073858;29;20166;-76
2023/04/09 00:23:51;;;;;;;44.33;37.90;;;;;;;-150.27;100.00;61272.81;5060629;29;20116;-76
2023/04/09 00:26:22;;;;;;;43.73;37.77;;;;;;;-150.27;100.00;61272.81;5077776;29;20040;-73
2023/04/09 00:28:54;;;;;;;42.20;37.77;;;;;;;-150.27;100.00;61272.81;5078756;29;20494;-75
2023/04/09 00:31:25;;;;;;;41.47;35.83;;;;;;;-150.27;100.00;61272.81;5077133;29;20400;-75
2023/04/09 00:33:57;;;;;;;40.40;35.23;;;;;;;-150.27;100.00;61272.81;5076644;29;20037;-75
2023/04/09 00:36:28;;;;;;;40.87;35.23;;;;;;;-150.27;100.00;61272.81;5077842;29;20059;-73
2023/04/09 00:38:59;;;;;;;38.80;34.70;;;;;;;-150.27;100.00;61272.81;5077684;29;20048;-75
2023/04/09 00:41:30;;;;;;;39.40;35.20;;;;;;;-150.27;100.00;61272.81;5076903;29;20040;-75
2023/04/09 00:44:02;;;;;;;36.70;32.80;;;;;;;-150.27;100.00;61272.81;5060615;29;20056;-75
2023/04/09 00:46:33;;;;;;;38.70;34.50;;;;;;;-150.27;100.00;61272.81;5060638;29;20564;-76
2023/04/09 00:49:04;;;;;;;35.83;31.93;;;;;;;-150.27;100.00;61272.81;5076616;29;20084;-75
2023/04/09 00:51:37;;;;;;;38.07;33.00;;;;;;;-150.27;100.00;61272.81;5077193;29;20033;-76
2023/04/09 00:54:09;;;;;;;36.67;32.97;;;;;;;-150.27;100.00;61272.81;5076894;29;20052;-72
2023/04/09 00:56:41;;;;;;;33.83;30.33;;;;;;;-150.27;100.00;61272.81;5077333;29;20096;-75
2023/04/09 00:59:12;;;;;;;34.03;30.47;;;;;;;-150.27;100.00;61272.81;5077006;29;20072;-74
2023/04/09 01:01:44;;;;;;;34.63;30.93;;;;;;;-150.27;100.00;61272.81;5077418;29;20120;-75
2023/04/09 01:04:15;;;;;;;32.00;28.53;;;;;;;-150.27;100.00;61272.81;5075691;29;20414;-75
2023/04/09 01:06:53;;;;;;;34.23;29.63;;;;;;;-150.27;100.00;61272.81;5076799;29;20076;-76
2023/04/09 01:09:45;;;;;;;31.30;28.00;;;;;;;-150.27;100.00;61272.81;5076805;29;20029;-75
2023/04/09 01:12:32;;;;;;;31.00;27.00;;;;;;;-150.27;100.00;61272.81;5096926;23;20068;-72
2023/04/09 01:15:10;;;;;;;30.10;26.90;;;;;;;-150.27;100.00;61272.81;5031216;29;20560;-75
2023/04/09 01:17:51;;;;;;;29.73;26.57;;;;;;;-150.27;100.00;61272.81;5037395;29;20396;-77
2023/04/09 01:20:33;;;;;;;31.17;27.87;;;;;;;-150.27;100.00;61272.81;5034969;29;20118;-75
2023/04/09 01:23:32;;;;;;;29.67;26.53;;;;;;;-150.27;100.00;61272.81;5036916;29;20030;-76
2023/04/09 01:26:18;;;;;;;31.60;27.80;;;;;;;-150.27;100.00;61272.81;5035235;29;20052;-74
2023/04/09 01:28:53;;;;;;;32.53;28.00;;;;;;;-150.27;100.00;61272.81;5037726;29;20033;-75
2023/04/09 01:31:31;;;;;;;30.77;27.43;;;;;;;-150.27;100.00;61272.81;5037068;29;20030;-75
2023/04/09 01:34:04;;;;;;;29.10;26.00;;;;;;;-150.27;100.00;61272.81;5035624;29;20034;-76
2023/04/09 01:36:38;;;;;;;30.57;27.27;;;;;;;-150.27;100.00;61272.81;5037130;29;20040;-72
2023/04/09 01:39:10;;;;;;;30.48;27.15;;;;;;;-150.27;100.00;61272.81;5036530;29;20397;-73
2023/04/09 01:41:42;;;;;;;33.43;29.90;;;;;;;-150.27;100.00;61272.81;5037218;29;20033;-75
2023/04/09 01:44:14;;;;;;;32.63;29.10;;;;;;;-150.27;100.00;61272.81;5036956;29;20113;-75
2023/04/09 01:46:47;;;;;;;31.40;26.90;;;;;;;-150.27;100.00;61272.81;5036483;29;20034;-76
2023/04/09 01:49:18;;;;;;;31.60;27.87;;;;;;;-150.27;100.00;61272.81;5034321;29;20265;-76
2023/04/09 01:51:50;;;;;;;31.87;27.67;;;;;;;-150.27;100.00;61272.81;5035318;29;20018;-75
2023/04/09 01:54:21;;;;;;;31.57;28.13;;;;;;;-150.27;100.00;61272.81;5035288;29;20033;-76
2023/04/09 01:56:53;;;;;;;32.93;28.53;;;;;;;-150.27;100.00;61272.81;5036623;29;20108;-73
2023/04/09 01:59:24;;;;;;;32.20;27.77;;;;;;;-150.27;100.00;61272.81;5020009;29;20041;-76
2023/04/09 02:02:17;;;;;;;31.03;27.73;;;;;;;-150.27;100.00;61272.81;5035699;29;20022;-75
2023/04/09 02:04:51;;;;;;;32.33;28.20;;;;;;;-150.27;100.00;61272.81;5035862;29;20029;-72
2023/04/09 02:07:41;;;;;;;30.38;27.08;;;;;;;-150.27;100.00;61272.81;5036211;29;20029;-77
2023/04/09 02:10:16;;;;;;;34.03;30.33;;;;;;;-150.27;100.00;61272.81;5019797;29;20033;-75
2023/04/09 02:12:49;;;;;;;;;;;;;;;-150.27;100.00;61272.81;5036658;29;20064;-75
2023/04/09 02:15:22;;;;;;;32.47;28.37;;;;;;;-150.27;100.00;61272.81;5036105;29;19920;-77
2023/04/09 02:17:54;;;;;;;33.13;29.53;;;;;;;-150.27;100.00;61272.81;5035594;29;20090;-75
2023/04/09 02:20:25;;;;;;;37.30;30.30;;;;;;;-150.27;100.00;61272.81;5036024;29;20041;-74
2023/04/09 02:22:57;;;;;;;33.37;29.77;;;;;;;-150.27;100.00;61272.81;5034253;29;20030;-76
2023/04/09 02:25:28;;;;;;;38.00;31.93;;;;;;;-150.27;100.00;61272.81;5036442;29;20066;-76
2023/04/09 02:27:59;;;;;;;33.43;29.80;;;;;;;-150.27;100.00;61272.81;5037091;29;20037;-76
2023/04/09 02:30:31;;;;;;;37.17;29.63;;;;;;;-150.27;100.00;61272.81;5036319;29;20057;-73
2023/04/09 02:33:02;;;;;;;36.37;30.40;;;;;;;-150.27;100.00;61272.81;5033813;29;20438;-76
2023/04/09 02:35:34;;;;;;;37.10;32.57;;;;;;;-150.27;100.00;61272.81;5035900;29;20034;-75
2023/04/09 02:38:06;;;;;;;32.17;28.70;;;;;;;-150.27;100.00;61272.81;5035419;29;20030;-76
2023/04/09 02:40:41;;;;;;;36.50;30.83;;;;;;;-150.27;100.00;61272.81;5035596;29;20038;-76
2023/04/09 02:43:12;;;;;;;37.40;31.55;;;;;;;-150.27;100.00;61272.81;5019298;29;20036;-76
2023/04/09 02:45:43;;;;;;;40.20;32.70;;;;;;;-150.27;100.00;61272.81;5034963;29;20108;-76
2023/04/09 02:48:14;;;;;;;39.53;32.93;;;;;;;-150.27;100.00;61272.81;5035221;29;20022;-76
2023/04/09 02:50:46;;;;;;;35.87;31.57;;;;;;;-150.27;100.00;61272.81;5035534;29;20045;-76
2023/04/09 02:53:17;;;;;;;39.47;33.10;;;;;;;-150.27;100.00;61272.81;5018553;29;20030;-75
2023/04/09 02:55:48;;;;;;;38.53;33.60;;;;;;;-150.27;100.00;61272.81;5021365;29;20034;-76
2023/04/09 02:58:19;;;;;;;38.10;33.40;;;;;;;-150.27;100.00;61272.81;5035236;29;20030;-75
2023/04/09 03:00:51;;;;;;;37.13;31.50;;;;;;;-150.27;100.00;61272.81;5035311;29;20040;-76
2023/04/09 03:03:22;;;;;;;36.83;32.67;;;;;;;-150.27;100.00;61272.81;5034076;29;20474;-76
2023/04/09 03:05:53;;;;;;;39.10;33.07;;;;;;;-150.27;100.00;61272.81;5034995;29;20033;-74
2023/04/09 03:08:25;;;;;;;42.03;35.63;;;;;;;-150.27;100.00;61272.81;5035247;29;20026;-76
2023/04/09 03:10:56;;;;;;;41.70;35.60;;;;;;;-150.27;100.00;61272.81;5034684;29;20101;-73
2023/04/09 03:13:27;;;;;;;44.10;36.27;;;;;;;-150.27;100.00;61272.81;5035598;29;20057;-76
2023/04/09 03:15:59;;;;;;;45.37;37.03;;;;;;;-150.27;100.00;61272.81;5018491;29;20065;-76
2023/04/09 03:18:30;;;;;;;44.70;35.43;;;;;;;-150.27;100.00;61272.81;5035074;29;20038;-76
2023/04/09 03:21:06;;;;;;;44.43;36.93;;;;;;;-150.27;100.00;61272.81;5034695;29;20490;-73
2023/04/09 03:23:37;;;;;;;47.67;37.57;;;;;;;-150.27;100.00;61272.81;5035689;29;20552;-76
2023/04/09 03:26:08;;;;;;;45.70;38.77;;;;;;;-150.27;100.00;61272.81;5018681;29;20041;-74
2023/04/09 03:28:40;;;;;;;41.77;35.87;;;;;;;-150.27;100.00;61272.81;5035355;29;20038;-76
2023/04/09 03:31:12;;;;;;;47.63;36.93;;;;;;;-150.27;100.00;61272.81;5035527;29;20121;-76
2023/04/09 03:33:44;;;;;;;43.57;37.03;;;;;;;-150.27;100.00;61272.81;5033204;29;20117;-76
2023/04/09 03:36:15;;;;;;;48.33;39.77;;;;;;;-150.27;100.00;61272.81;5042598;29;20116;-77
2023/04/09 03:38:46;;;;;;;45.47;38.43;;;;;;;-150.27;100.00;61272.81;5038159;29;20029;-76
2023/04/09 03:41:18;;;;;;;47.60;39.13;;;;;;;-150.27;100.00;61272.81;5054522;29;20185;-76
2023/04/09 03:43:49;;;;;;;45.47;36.23;;;;;;;-150.27;100.00;61272.81;5054917;29;20029;-72
2023/04/09 03:46:20;;;;;;;48.47;39.20;;;;;;;-150.27;100.00;61272.81;5054439;29;20044;-76
2023/04/09 03:48:51;;;;;;;47.27;39.37;;;;;;;-150.27;100.00;61272.81;5053713;29;20030;-76
2023/04/09 03:51:23;;;;;;;51.33;39.83;;;;;;;-150.27;100.00;61272.81;5054622;29;20029;-76
2023/04/09 03:53:54;;;;;;;46.00;38.30;;;;;;;-150.27;100.00;61272.81;5054255;29;20177;-76
2023/04/09 03:56:25;;;;;;;46.63;38.67;;;;;;;-150.27;100.00;61272.81;5054893;29;20048;-76
2023/04/09 03:58:57;;;;;;;46.87;38.90;;;;;;;-150.27;100.00;61272.81;5057603;29;20075;-77
2023/04/09 04:01:28;;;;;;;46.70;38.60;;;;;;;-150.27;100.00;61272.81;5058129;29;20045;-77
2023/04/09 04:03:59;;;;;;;46.33;36.57;;;;;;;-150.27;100.00;61272.81;5056809;29;20081;-76
2023/04/09 04:06:33;;;;;;;44.33;37.13;;;;;;;-150.27;100.00;61272.81;5057949;29;20033;-76
2023/04/09 04:09:04;;;;;;;43.03;36.97;;;;;;;-150.27;100.00;61272.81;5051764;29;20037;-73
2023/04/09 04:11:36;;;;;;;44.87;36.27;;;;;;;-150.27;100.00;61272.81;5022193;29;20034;-76
2023/04/09 04:14:07;;;;;;;45.13;38.90;;;;;;;-150.27;100.00;61272.81;5038111;29;20046;-76
2023/04/09 04:16:41;;;;;;;46.40;38.07;;;;;;;-150.27;100.00;61272.81;5038640;29;20466;-76
2023/04/09 04:19:12;;;;;;;48.47;37.83;;;;;;;-150.27;100.00;61272.81;5037157;29;20018;-76
2023/04/09 04:21:44;;;;;;;44.47;37.47;;;;;;;-150.27;100.00;61272.81;5038902;29;20116;-72
2023/04/09 04:24:15;;;;;;;43.57;36.17;;;;;;;-150.27;100.00;61272.81;5021645;29;20026;-76
2023/04/09 04:26:46;;;;;;;46.43;37.73;;;;;;;-150.27;100.00;61272.81;5037858;29;20029;-76
2023/04/09 04:29:18;;;;;;;46.57;38.93;;;;;;;-150.27;100.00;61272.81;5038471;29;20022;-76
2023/04/09 04:31:49;;;;;;;45.73;36.43;;;;;;;-150.27;100.00;61272.81;5037848;29;20357;-76
2023/04/09 04:34:20;;;;;;;46.63;38.17;;;;;;;-150.27;100.00;61272.81;5035777;29;20494;-73
2023/04/09 04:36:52;;;;;;;49.27;38.57;;;;;;;-150.27;100.00;61272.81;5037463;29;20099;-76
2023/04/09 04:39:23;;;;;;;48.40;38.63;;;;;;;-150.27;100.00;61272.81;5037942;29;20064;-77
2023/04/09 04:41:54;;;;;;;47.23;36.63;;;;;;;-150.27;100.00;61272.81;5038449;29;20091;-76
2023/04/09 04:44:25;;;;;;;45.53;36.23;;;;;;;-150.27;100.00;61272.81;5037923;29;20108;-76
2023/04/09 04:46:57;;;;;;;44.60;36.90;;;;;;;-150.27;100.00;61272.81;5021209;29;20030;-76
2023/04/09 04:49:29;;;;;;;45.20;35.23;;;;;;;-150.27;100.00;61272.81;5037018;29;20371;-76
2023/04/09 04:52:00;;;;;;;51.73;38.57;;;;;;;-150.27;100.00;61272.81;5038066;29;20091;-76
2023/04/09 04:54:32;;;;;;;47.33;36.27;;;;;;;-150.27;100.00;61272.81;5038469;29;20045;-77
2023/04/09 04:57:03;;;;;;;47.23;36.43;;;;;;;-150.27;100.00;61272.81;5003143;29;20573;-75
2023/04/09 04:59:39;;;;;;;43.67;34.63;;;;;;;-150.27;100.00;61272.81;5019021;29;20456;-76
2023/04/09 05:02:10;;;;;;;43.30;33.53;;;;;;;-150.27;100.00;61272.81;5024658;29;20154;-76
2023/04/09 05:04:41;;;;;;;40.83;32.80;;;;;;;-150.27;100.00;61272.81;5036960;29;20050;-76
2023/04/09 05:07:13;;;;;;;44.03;34.57;;;;;;;-150.27;100.00;61272.81;5020808;29;20056;-76
2023/04/09 05:09:44;;;;;;;46.20;35.67;;;;;;;-150.27;100.00;61272.81;5020290;29;20034;-76
2023/04/09 05:12:16;;;;;;;46.30;34.40;;;;;;;-150.27;100.00;61272.81;5037216;29;20042;-76
2023/04/09 05:14:48;;;;;;;40.90;33.20;;;;;;;-150.27;100.00;61272.81;5037208;29;20037;-77
2023/04/09 05:17:19;;;;;;;39.40;33.33;;;;;;;-150.27;100.00;61272.81;5020075;29;20386;-76
2023/04/09 05:19:53;;;;;;;44.27;34.33;;;;;;;-150.27;100.00;61272.81;5020802;29;20038;-76
2023/04/09 05:22:25;;;;;;;;;;;;;;;-150.27;100.00;61272.81;5038023;29;20048;-76
2023/04/09 05:24:56;;;;;;;45.30;35.30;;;;;;;-150.27;100.00;61272.81;5036639;29;19924;-73
2023/04/09 05:27:28;;;;;;;42.37;32.93;;;;;;;-150.27;100.00;61272.81;5036596;29;20046;-75
2023/04/09 05:30:00;;;;;;;44.67;34.63;;;;;;;-150.27;100.00;61272.81;5037355;29;20029;-74
2023/04/09 05:32:31;;;;;;;41.57;32.90;;;;;;;-150.27;100.00;61272.81;5019411;29;20401;-76
2023/04/09 05:35:03;;;;;;;44.20;34.30;;;;;;;-150.27;100.00;61272.81;5036234;29;20026;-76
2023/04/09 05:37:34;;;;;;;45.93;34.53;;;;;;;-150.27;100.00;61272.81;5036861;29;20493;-72
2023/04/09 05:40:06;;;;;;;44.63;32.80;;;;;;;-150.27;100.00;61272.81;5020376;29;20049;-76
2023/04/09 05:42:37;;;;;;;42.37;33.23;;;;;;;-150.27;100.00;61272.81;5036736;29;20111;-76
2023/04/09 05:45:09;;;;;;;42.40;33.87;;;;;;;-150.27;100.00;61272.81;5020300;29;20034;-76
2023/04/09 05:47:40;;;;;;;42.20;32.03;;;;;;;-150.27;100.00;61272.81;5036518;29;20041;-77
2023/04/09 05:50:12;;;;;;;45.23;33.20;;;;;;;-150.27;100.00;61272.81;5036449;29;20046;-76
2023/04/09 05:52:43;;;;;;;42.83;33.77;;;;;;;-150.27;100.00;61272.81;5036863;29;20045;-76
2023/04/09 05:55:14;;;;;;;41.23;32.63;;;;;;;-150.27;100.00;61272.81;5036530;29;20575;-76
2023/04/09 05:57:46;;;;;;;44.37;32.60;;;;;;;-150.27;100.00;61272.81;5036628;29;20520;-76
2023/04/09 06:00:17;;;;;;;43.67;33.83;;;;;;;-150.27;100.00;61272.81;5036566;29;20037;-76
2023/04/09 06:02:49;;;;;;;43.93;32.03;;;;;;;-150.27;100.00;61272.81;5035432;29;20439;-75
2023/04/09 06:05:20;;;;;;;43.53;32.47;;;;;;;-150.27;100.00;61272.81;5036895;29;20060;-73
2023/04/09 06:07:52;;;;;;;39.90;32.07;;;;;;;-150.27;100.00;61272.81;5037210;29;20061;-76
2023/04/09 06:10:23;;;;;;;39.70;33.37;;;;;;;-150.27;100.00;61272.81;5035920;29;20041;-74
2023/04/09 06:12:54;;;;;;;41.43;31.97;;;;;;;-150.27;100.00;61272.81;5036403;29;20094;-76
2023/04/09 06:15:26;;;;;;;43.10;34.00;;;;;;;-150.27;100.00;61272.81;5019607;29;20045;-73
2023/04/09 06:17:57;;;;;;;40.50;32.90;;;;;;;-150.27;100.00;61272.81;5033779;29;20032;-76
2023/04/09 06:20:29;;;;;;;38.77;32.40;;;;;;;-150.27;100.00;61272.81;5036937;29;20065;-75
2023/04/09 06:23:00;;;;;;;42.20;33.67;;;;;;;-150.27;100.00;61272.81;5019467;29;20017;-72
2023/04/09 06:25:32;;;;;;;42.53;33.43;;;;;;;-150.27;100.00;61272.81;5020267;29;20034;-75
2023/04/09 06:28:03;;;;;;;42.43;32.83;;;;;;;-150.27;100.00;61272.81;5019434;29;20037;-76
2023/04/09 06:30:36;;;;;;;42.20;33.40;;;;;;;-150.27;100.00;61272.81;5035892;29;20110;-76
2023/04/09 06:33:07;;;;;;;40.93;32.50;;;;;;;-150.27;100.00;61272.81;5035351;29;20041;-74
2023/04/09 06:35:38;;;;;;;40.87;33.03;;;;;;;-150.27;100.00;61272.81;5036031;29;20037;-75
2023/04/09 06:38:10;;;;;;;45.37;34.43;;;;;;;-150.27;100.00;61272.81;5035928;29;20026;-76
2023/04/09 06:40:41;;;;;;;42.03;31.57;;;;;;;-150.27;100.00;61272.81;5036394;29;20109;-76
2023/04/09 06:43:12;;;;;;;41.60;33.63;;;;;;;-150.27;100.00;61272.81;5036163;29;20446;-76
2023/04/09 06:45:44;;;;;;;42.77;33.13;;;;;;;-150.27;100.00;61272.81;5036338;29;20026;-76
2023/04/09 06:48:15;;;;;;;41.50;34.37;;;;;;;-150.27;100.00;61272.81;5034944;29;20655;-77
2023/04/09 06:50:47;;;;;;;45.13;35.83;;;;;;;-150.27;100.00;61272.81;5035987;29;20037;-76
2023/04/09 06:53:18;;;;;;;41.63;34.43;;;;;;;-150.27;100.00;61272.81;5019053;29;20561;-76
2023/04/09 06:55:50;;;;;;;41.97;33.17;;;;;;;-150.27;100.00;61272.81;5035867;29;20390;-77
2023/04/09 06:58:21;;;;;;;39.53;32.93;;;;;;;-150.27;100.00;61272.81;5034944;29;20041;-75
2023/04/09 07:00:52;;;;;;;46.27;34.43;;;;;;;-150.27;100.00;61272.81;5033311;29;20440;-76
2023/04/09 07:03:26;;;;;;;40.77;32.83;;;;;;;-150.27;100.00;61272.81;5017053;29;20022;-76
2023/04/09 07:05:57;;;;;;;47.57;35.23;;;;;;;-150.27;100.00;61272.81;5033247;29;20485;-76
2023/04/09 07:08:29;;;;;;;42.83;33.47;;;;;;;-150.27;100.00;61272.81;5035833;29;20038;-77
2023/04/09 07:11:00;;;;;;;42.67;35.50;;;;;;;-150.27;100.00;61272.81;5035785;29;20037;-72
2023/04/09 07:13:31;;;;;;;43.47;34.20;;;;;;;-150.27;100.00;61272.81;5018924;29;20061;-76
2023/04/09 07:16:03;;;;;;;41.03;33.80;;;;;;;-150.27;100.00;61272.81;5035865;29;20030;-76
2023/04/09 07:18:34;;;;;;;43.57;34.60;;;;;;;-150.27;100.00;61272.81;5018369;29;20055;-76
2023/04/09 07:21:06;;;;;;;42.77;35.40;;;;;;;-150.27;100.00;61272.81;5035779;29;20034;-72
2023/04/09 07:23:38;;;;;;;41.07;32.50;;;;;;;-150.27;100.00;61272.81;5019605;29;20136;-72
2023/04/09 07:26:10;;;;;;;41.37;33.70;;;;;;;-150.27;100.00;61272.81;5035160;29;20132;-76
2023/04/09 07:28:41;;;;;;;40.13;33.30;;;;;;;-150.27;100.00;61272.81;5033940;29;20034;-75
2023/04/09 07:31:13;;;;;;;40.33;34.00;;;;;;;-150.27;100.00;61272.81;5036179;29;20117;-76
2023/04/09 07:33:44;;;;;;;39.40;31.50;;;;;;;-150.27;100.00;61272.81;5041216;29;20041;-75
2023/04/09 07:36:15;;;;;;;42.23;34.03;;;;;;;-150.27;100.00;61272.81;5041727;29;20786;-76
2023/04/09 07:38:47;;;;;;;38.70;33.77;;;;;;;-150.27;100.00;61272.81;5041739;29;20462;-76
2023/04/09 07:41:18;;;;;;;35.53;31.13;;;;;;;-150.27;100.00;61272.81;5041567;29;20513;-76
2023/04/09 07:43:50;;;;;;;39.57;32.20;;;;;;;-150.27;100.00;61272.81;5041535;29;20060;-76
2023/04/09 07:46:21;;;;;;;40.43;34.80;;;;;;;-150.27;100.00;61272.81;5041254;29;20098;-76
2023/04/09 07:48:52;;;;;;;38.40;32.30;;;;;;;-150.27;100.00;61272.81;5040782;29;20504;-76
2023/04/09 07:51:24;;;;;;;38.23;30.57;;;;;;;-150.27;100.00;61272.81;5040879;29;20041;-76
2023/04/09 07:53:55;;;;;;;36.83;31.80;;;;;;;-150.27;100.00;61272.81;5040198;29;20487;-77
2023/04/09 07:56:26;;;;;;;38.93;30.87;;;;;;;-150.27;100.00;61272.81;5038998;29;20042;-72
2023/04/09 07:58:58;;;;;;;36.50;30.67;;;;;;;-150.27;100.00;61272.81;5040843;29;20038;-77
2023/04/09 08:01:29;;;;;;;35.47;31.10;;;;;;;-150.27;100.00;61272.81;5041469;29;20037;-77
2023/04/09 08:04:01;;;;;;;37.83;31.10;;;;;;;-150.27;100.00;61272.81;5041520;29;20907;-75
2023/04/09 08:06:32;;;;;;;35.60;30.20;;;;;;;-150.27;100.00;61272.81;5043048;29;20084;-75
2023/04/09 08:09:03;;;;;;;34.27;30.30;;;;;;;-150.27;100.00;61272.81;5041330;29;20048;-74
2023/04/09 08:11:34;;;;;;;34.27;30.33;;;;;;;-150.27;100.00;61272.81;5041821;29;20030;-74
2023/04/09 08:14:06;;;;;;;35.80;31.10;;;;;;;-150.27;100.00;61272.81;5031188;29;20042;-79
2023/04/09 08:16:43;;;;;;;34.33;30.50;;;;;;;-150.27;100.00;61272.81;5040462;29;20030;-81
2023/04/09 08:19:16;;;;;;;35.90;29.93;;;;;;;-150.27;100.00;61272.81;5036615;29;20039;-80
2023/04/09 08:21:50;;;;;;;37.87;30.37;;;;;;;-150.27;100.00;61272.81;5043089;29;20033;-79
2023/04/09 08:24:21;;;;;;;35.53;31.17;;;;;;;-150.27;100.00;61272.81;5037757;29;20167;-78
2023/04/09 08:26:53;;;;;;;37.63;31.53;;;;;;;-150.27;100.00;61272.81;5041839;29;20050;-74
2023/04/09 08:29:25;;;;;;;35.13;31.30;;;;;;;-150.27;100.00;61272.81;5042239;29;20030;-74
2023/04/09 08:31:57;;;;;;;36.80;33.00;;;;;;;-150.27;100.00;61272.81;5038945;29;20040;-77
2023/04/09 08:34:28;;;;;;;33.97;29.87;;;;;;;-150.27;100.00;61272.81;5025658;29;20025;-79
2023/04/09 08:36:59;;;;;;;36.97;33.17;;;;;;;-150.27;100.00;61272.81;5035360;29;20034;-78
2023/04/09 08:39:30;;;;;;;35.87;32.07;;;;;;;-150.27;100.00;61272.81;5021378;29;20030;-76
2023/04/09 08:42:05;;;;;;;36.80;30.03;;;;;;;-150.27;100.00;61272.81;5038495;29;20025;-81
2023/04/09 08:44:37;;;;;;;34.47;30.67;;;;;;;-150.27;100.00;61272.81;5027928;29;20069;-77
2023/04/09 08:47:10;;;;;;;33.77;30.17;;;;;;;-150.27;100.00;61272.81;5019798;29;20477;-77
2023/04/09 08:49:41;;;;;;;33.77;30.37;;;;;;;-150.27;100.00;61272.81;5037618;29;20038;-79
2023/04/09 08:52:15;;;;;;;32.50;29.13;;;;;;;-150.27;100.00;61272.81;5027770;29;20052;-75
2023/04/09 08:54:47;;;;;;;35.58;31.88;;;;;;;-150.27;100.00;61272.81;5023937;29;20042;-75
2023/04/09 08:57:18;;;;;;;34.73;31.13;;;;;;;-150.27;100.00;61272.81;5019381;29;20018;-83
2023/04/09 08:59:49;;;;;;;35.07;31.33;;;;;;;-150.27;100.00;61272.81;5019791;29;20102;-81
2023/04/09 09:02:22;;;;;;;34.53;30.83;;;;;;;-150.27;100.00;61272.81;5016845;29;20047;-80
2023/04/09 09:04:59;;;;;;;33.97;30.33;;;;;;;-150.27;100.00;61272.81;5019413;29;20102;-81
2023/04/09 09:07:31;;;;;;;38.07;32.20;;;;;;;-150.27;100.00;61272.81;5019848;29;20394;-81
2023/04/09 09:10:03;;;;;;;36.03;32.23;;;;;;;-150.27;100.00;61272.81;5019023;29;20118;-79
2023/04/09 09:12:38;;;;;;;35.50;31.73;;;;;;;-150.27;100.00;61272.81;5033991;29;20137;-79
2023/04/09 09:15:28;;;;;;;35.90;32.10;;;;;;;-150.27;100.00;61272.81;5037818;29;20026;-75
2023/04/09 09:18:00;;;;;;;32.77;29.27;;;;;;;-150.27;100.00;61272.81;5034467;29;20045;-77
2023/04/09 09:20:31;;;;;;;32.60;29.20;;;;;;;-150.27;100.00;61272.81;5035316;29;20040;-73
2023/04/09 09:23:03;;;;;;;33.80;30.20;;;;;;;-150.27;100.00;61272.81;5034770;29;20109;-76
2023/04/09 09:25:40;;;;;;;33.37;29.83;;;;;;;-150.27;100.00;61272.81;5034173;29;20049;-76
2023/04/09 09:28:12;;;;;;;35.03;31.17;;;;;;;-150.27;100.00;61272.81;5033115;29;20094;-76
2023/04/09 09:30:45;;;;;;;33.90;30.33;;;;;;;-150.27;100.00;61272.81;5033948;29;20035;-76
2023/04/09 09:33:16;;;;;;;31.38;28.13;;;;;;;-150.27;100.00;61272.81;5031553;29;20042;-73
2023/04/09 09:35:49;;;;;;;32.00;28.63;;;;;;;-150.27;100.00;61272.81;5033448;29;20030;-77
2023/04/09 09:38:21;;;;;;;31.95;28.75;;;;;;;-150.27;100.00;61272.81;5032299;29;20042;-74
2023/04/09 09:40:52;;;;;;;31.23;28.00;;;;;;;-150.27;100.00;61272.81;5033620;29;20042;-75
2023/04/09 09:43:23;;;;;;;29.65;26.55;;;;;;;-150.27;100.00;61272.81;5032957;29;20041;-77
2023/04/09 09:45:55;;;;;;;28.27;25.48;;;;;;;-150.27;100.00;61272.81;5035020;29;20100;-78
2023/04/09 09:48:27;;;;;;;29.83;27.00;;;;;;;-150.27;100.00;61272.81;5034524;29;20117;-76
2023/04/09 09:51:00;;;;;;;27.05;24.45;;;;;;;-150.27;100.00;61272.81;5036055;29;20040;-77
2023/04/09 09:53:34;;;;;;;27.38;24.67;;;;;;;-150.27;100.00;61272.81;5036089;29;20053;-77
2023/04/09 09:56:10;;;;;;;25.50;23.00;;;;;;;-150.27;100.00;61272.81;5035815;29;20077;-77
2023/04/09 09:58:53;;;;;;;25.75;23.38;;;;;;;-150.27;100.00;61272.81;5034816;29;20030;-77
2023/04/09 10:01:26;;;;;;;24.80;22.15;;;;;;;-150.27;100.00;61272.81;5035801;29;20034;-77
2023/04/09 10:04:03;;;;;;;26.17;23.48;;;;;;;-150.27;100.00;61272.81;5033591;29;20120;-76
2023/04/09 10:06:34;;;;;;;24.63;22.35;;;;;;;-150.27;100.00;61272.81;5035654;29;20132;-77
2023/04/09 10:09:06;;;;;;;21.13;19.13;;;;;;;-150.27;100.00;61272.81;5035903;29;20040;-77
2023/04/09 10:11:41;;;;;;;25.42;22.88;;;;;;;-150.27;100.00;61272.81;5035907;29;20034;-74
2023/04/09 10:14:13;;;;;;;23.73;21.33;;;;;;;-150.27;100.00;61272.81;5035824;29;20053;-76
2023/04/09 10:16:45;;;;;;;25.45;23.15;;;;;;;-150.27;100.00;61272.81;5034794;29;20486;-72
2023/04/09 10:19:17;;;;;;;26.85;24.25;;;;;;;-150.27;100.00;61272.81;5034290;29;20029;-77
2023/04/09 10:21:58;;;;;;;28.45;25.73;;;;;;;-150.27;100.00;61272.81;5035568;29;20086;-77
2023/04/09 10:24:30;;;;;;;30.10;27.00;;;;;;;-150.27;100.00;61272.81;5036190;29;20094;-76
2023/04/09 10:27:14;;;;;;;25.77;23.20;;;;;;;-150.27;100.00;61272.81;5035069;29;20076;-76
2023/04/09 10:29:47;;;;;;;25.17;22.70;;;;;;;-150.27;100.00;61272.81;5035910;29;20038;-76
2023/04/09 10:32:21;;;;;;;26.80;24.13;;;;;;;-150.27;100.00;61272.81;5034204;29;20034;-75
2023/04/09 10:34:56;;;;;;;23.83;21.15;;;;;;;-150.27;100.00;61272.81;5034449;29;20095;-72
2023/04/09 10:37:27;;;;;;;14.10;12.70;;;;;;;-150.27;100.00;61272.81;5034843;29;20524;-77
2023/04/09 10:39:58;;;;;;;13.33;11.93;;;;;;;-150.27;100.00;61272.81;5034258;29;20022;-77
2023/04/09 10:42:40;;;;;;;16.13;14.43;;;;;;;-150.27;100.00;61272.81;5033963;29;20045;-73
2023/04/09 10:45:13;;;;;;;16.37;14.83;;;;;;;-150.27;100.00;61272.81;5034135;29;20516;-76
2023/04/09 10:47:50;;;;;;;17.57;15.67;;;;;;;-150.27;100.00;61272.81;5034497;29;20405;-76
2023/04/09 10:50:26;;;;;;;16.65;14.93;;;;;;;-150.27;100.00;61272.81;5034997;29;20045;-76
2023/04/09 10:52:59;;;;;;;16.52;14.88;;;;;;;-150.27;100.00;61272.81;5018452;29;20022;-77
2023/04/09 10:55:41;;;;;;;17.25;15.60;;;;;;;-150.27;100.00;61272.81;5035223;29;20034;-76
2023/04/09 10:58:12;;;;;;;16.55;14.98;;;;;;;-150.27;100.00;61272.81;5033731;29;20114;-76
2023/04/09 11:00:45;;;;;;;16.70;15.00;;;;;;;-150.27;100.00;61272.81;5035277;29;20034;-72
2023/04/09 11:03:24;;;;;;;14.27;12.85;;;;;;;-150.27;100.00;61272.81;5033078;29;20029;-78
2023/04/09 11:06:09;;;;;;;17.27;14.95;;;;;;;-150.27;100.00;61272.81;5034728;29;20351;-76
2023/04/09 11:08:43;;;;;;;15.60;14.10;;;;;;;-150.27;100.00;61272.81;5035124;29;20042;-78
2023/04/09 11:11:15;;;;;;;18.02;14.70;;;;;;;-150.27;100.00;61272.81;5034522;29;20022;-78
2023/04/09 11:13:46;;;;;;;16.60;14.97;;;;;;;-150.27;100.00;61272.81;5034079;29;20102;-77
2023/04/09 11:16:19;;;;;;;15.40;13.80;;;;;;;-150.27;100.00;61272.81;5033571;29;20030;-75
2023/04/09 11:18:52;;;;;;;14.90;13.40;;;;;;;-150.27;100.00;61272.81;5035299;29;20478;-78